createdAt,value
2023-01-29T00:00:11.121Z,99.90
2023-01-29T00:02:41.922Z,99.90
2023-01-29T00:05:26.547Z,99.90
2023-01-29T00:07:57.424Z,99.90
2023-01-29T00:10:26.233Z,99.90
2023-01-29T00:12:54.453Z,99.90
2023-01-29T00:15:23.390Z,99.90
2023-01-29T00:17:51.649Z,99.90
2023-01-29T00:20:19.681Z,99.90
2023-01-29T00:22:47.762Z,99.90
2023-01-29T00:25:15.530Z,99.90
2023-01-29T00:27:44.153Z,99.90
2023-01-29T00:30:13.481Z,99.90
2023-01-29T00:32:41.800Z,99.90
2023-01-29T00:35:13.001Z,99.90
2023-01-29T00:37:40.858Z,99.90
2023-01-29T00:40:10.483Z,99.90
2023-01-29T00:42:56.940Z,99.90
2023-01-29T00:45:25.128Z,99.90
2023-01-29T00:47:53.031Z,99.90
2023-01-29T00:50:20.966Z,99.90
2023-01-29T00:52:50.393Z,99.90
2023-01-29T00:55:18.910Z,99.90
2023-01-29T00:57:46.983Z,99.90
2023-01-29T01:00:18.137Z,99.90
2023-01-29T01:03:04.870Z,99.90
2023-01-29T01:05:33.422Z,99.90
2023-01-29T01:08:01.340Z,99.90
2023-01-29T01:10:34.043Z,99.90
2023-01-29T01:13:08.499Z,99.90
2023-01-29T01:15:39.068Z,99.90
2023-01-29T01:18:07.287Z,99.90
2023-01-29T01:20:36.577Z,99.90
2023-01-29T01:23:05.574Z,99.90
2023-01-29T01:25:34.218Z,99.90
2023-01-29T01:28:02.015Z,99.90
2023-01-29T01:30:30.211Z,99.90
2023-01-29T01:32:58.392Z,99.90
2023-01-29T01:35:26.144Z,99.90
2023-01-29T01:37:56.903Z,99.90
2023-01-29T01:40:27.362Z,99.90
2023-01-29T01:42:57.974Z,99.90
2023-01-29T01:45:33.829Z,99.90
2023-01-29T01:48:17.636Z,99.90
2023-01-29T01:51:00.941Z,99.90
2023-01-29T01:53:39.266Z,99.90
2023-01-29T01:56:15.439Z,99.90
2023-01-29T01:58:51.253Z,99.90
2023-01-29T02:01:26.903Z,99.90
2023-01-29T02:04:19.089Z,99.90
2023-01-29T02:07:06.253Z,99.90
2023-01-29T02:09:43.465Z,99.90
2023-01-29T02:12:16.724Z,99.90
2023-01-29T02:14:46.340Z,99.90
2023-01-29T02:17:17.358Z,99.90
2023-01-29T02:20:09.361Z,99.90
2023-01-29T02:22:56.442Z,99.90
2023-01-29T02:26:23.346Z,99.90
2023-01-29T02:29:27.546Z,99.90
2023-01-29T02:32:01.736Z,99.90
2023-01-29T02:35:02.369Z,99.90
2023-01-29T02:37:58.360Z,99.90
2023-01-29T02:40:26.419Z,99.90
2023-01-29T02:43:08.411Z,99.90
2023-01-29T02:45:54.830Z,99.90
2023-01-29T02:48:26.235Z,99.90
2023-01-29T02:51:05.408Z,99.90
2023-01-29T02:54:03.384Z,99.90
2023-01-29T02:56:52.257Z,99.90
2023-01-29T02:59:34.541Z,99.90
2023-01-29T03:02:09.003Z,99.90
2023-01-29T03:04:43.624Z,99.90
2023-01-29T03:07:37.696Z,99.90
2023-01-29T03:10:12.115Z,99.90
2023-01-29T03:12:42.948Z,99.90
2023-01-29T03:15:39.712Z,99.90
2023-01-29T03:18:28.052Z,99.90
2023-01-29T03:21:27.565Z,99.90
2023-01-29T03:24:18.430Z,99.90
2023-01-29T03:27:06.784Z,99.90
2023-01-29T03:30:01.058Z,99.90
2023-01-29T03:32:49.429Z,99.90
2023-01-29T03:35:37.196Z,99.90
2023-01-29T03:38:12.003Z,99.90
2023-01-29T03:40:54.124Z,99.90
2023-01-29T03:43:45.112Z,99.90
2023-01-29T03:46:35.253Z,99.90
2023-01-29T03:49:36.652Z,99.90
2023-01-29T03:52:20.291Z,99.90
2023-01-29T03:55:01.230Z,99.90
2023-01-29T03:57:40.677Z,99.90
2023-01-29T04:00:28.295Z,99.90
2023-01-29T04:03:18.456Z,99.90
2023-01-29T04:06:17.994Z,99.90
2023-01-29T04:09:04.921Z,99.90
2023-01-29T04:11:39.059Z,99.90
2023-01-29T04:14:08.974Z,99.90
2023-01-29T04:16:44.967Z,99.90
2023-01-29T04:19:20.567Z,99.90
2023-01-29T04:21:53.697Z,99.90
2023-01-29T04:24:21.577Z,99.90
2023-01-29T04:27:18.022Z,99.90
2023-01-29T04:30:02.008Z,99.90
2023-01-29T04:32:50.580Z,99.90
2023-01-29T04:35:46.311Z,99.90
2023-01-29T04:38:41.792Z,99.90
2023-01-29T04:41:33.884Z,99.90
2023-01-29T04:44:19.021Z,99.90
2023-01-29T04:47:20.527Z,99.90
2023-01-29T04:50:37.897Z,99.90
2023-01-29T04:53:24.182Z,99.90
2023-01-29T04:55:58.020Z,99.90
2023-01-29T04:59:13.467Z,99.90
2023-01-29T05:01:41.894Z,99.90
2023-01-29T05:04:14.350Z,99.90
2023-01-29T05:06:44.029Z,99.90
2023-01-29T05:09:15.031Z,99.90
2023-01-29T05:11:45.264Z,99.90
2023-01-29T05:14:16.036Z,99.90
2023-01-29T05:16:48.262Z,99.90
2023-01-29T05:19:17.400Z,99.90
2023-01-29T05:21:50.364Z,99.90
2023-01-29T05:24:23.865Z,99.90
2023-01-29T05:27:12.323Z,99.90
2023-01-29T05:29:45.967Z,99.90
2023-01-29T05:32:14.605Z,99.90
2023-01-29T05:34:42.593Z,99.90
2023-01-29T05:37:11.551Z,99.90
2023-01-29T05:39:39.387Z,99.90
2023-01-29T05:42:08.120Z,99.90
2023-01-29T05:44:35.919Z,99.90
2023-01-29T05:47:03.847Z,99.90
2023-01-29T05:49:31.679Z,99.90
2023-01-29T05:51:59.585Z,99.90
2023-01-29T05:54:27.685Z,99.90
2023-01-29T05:56:55.563Z,99.90
2023-01-29T05:59:23.564Z,99.90
2023-01-29T06:01:51.773Z,99.90
2023-01-29T06:04:19.512Z,99.90
2023-01-29T06:06:47.388Z,99.90
2023-01-29T06:09:15.487Z,99.90
2023-01-29T06:11:46.145Z,99.90
2023-01-29T06:14:13.974Z,99.90
2023-01-29T06:16:41.848Z,99.90
2023-01-29T06:19:09.707Z,99.90
2023-01-29T06:21:37.462Z,99.90
2023-01-29T06:24:05.907Z,99.90
2023-01-29T06:26:33.741Z,99.90
2023-01-29T06:29:01.557Z,99.90
2023-01-29T06:31:38.529Z,99.90
2023-01-29T06:34:08.513Z,99.90
2023-01-29T06:36:36.452Z,99.90
2023-01-29T06:39:05.258Z,99.90
2023-01-29T06:41:32.988Z,99.90
2023-01-29T06:44:01.034Z,99.90
2023-01-29T06:46:28.711Z,99.90
2023-01-29T06:49:00.622Z,99.90
2023-01-29T06:51:28.865Z,99.90
2023-01-29T06:53:59.369Z,99.90
2023-01-29T06:56:27.130Z,99.90
2023-01-29T06:58:55.125Z,99.90
2023-01-29T07:01:35.288Z,99.90
2023-01-29T07:04:04.926Z,99.90
2023-01-29T07:06:32.779Z,99.90
2023-01-29T07:09:00.800Z,99.90
2023-01-29T07:11:28.826Z,99.90
2023-01-29T07:13:56.685Z,99.90
2023-01-29T07:16:25.497Z,99.90
2023-01-29T07:18:53.498Z,99.90
2023-01-29T07:21:21.329Z,99.90
2023-01-29T07:23:49.222Z,99.90
2023-01-29T07:26:17.132Z,99.90
2023-01-29T07:28:44.875Z,99.90
2023-01-29T07:31:14.669Z,99.90
2023-01-29T07:33:44.807Z,99.90
2023-01-29T07:36:13.159Z,99.90
2023-01-29T07:38:40.908Z,99.90
2023-01-29T07:41:10.291Z,99.90
2023-01-29T07:43:38.053Z,99.90
2023-01-29T07:46:06.160Z,99.90
2023-01-29T07:48:34.173Z,99.90
2023-01-29T07:51:02.094Z,99.90
2023-01-29T07:53:30.108Z,99.90
2023-01-29T07:55:58.662Z,99.90
2023-01-29T07:58:26.530Z,99.90
2023-01-29T08:00:54.383Z,99.90
2023-01-29T08:03:22.311Z,99.90
2023-01-29T08:05:50.291Z,99.90
2023-01-29T08:08:19.577Z,99.90
2023-01-29T08:10:47.699Z,99.90
2023-01-29T08:13:15.958Z,99.90
2023-01-29T08:15:48.095Z,99.90
2023-01-29T08:18:16.594Z,99.90
2023-01-29T08:20:44.402Z,99.90
2023-01-29T08:23:17.545Z,99.90
2023-01-29T08:25:45.521Z,99.90
2023-01-29T08:28:13.679Z,99.90
2023-01-29T08:30:42.117Z,99.90
2023-01-29T08:33:09.870Z,99.90
2023-01-29T08:35:38.384Z,99.90
2023-01-29T08:38:06.359Z,99.90
2023-01-29T08:40:35.746Z,99.90
2023-01-29T08:43:07.833Z,99.90
2023-01-29T08:45:39.173Z,98.70
2023-01-29T08:48:07.370Z,99.00
2023-01-29T08:50:36.242Z,98.10
2023-01-29T08:53:08.191Z,98.40
2023-01-29T08:55:40.935Z,98.60
2023-01-29T08:58:11.824Z,98.50
2023-01-29T09:00:39.865Z,98.40
2023-01-29T09:03:08.261Z,98.50
2023-01-29T09:05:37.413Z,98.00
2023-01-29T09:08:06.072Z,97.40
2023-01-29T09:10:34.410Z,97.90
2023-01-29T09:13:02.298Z,97.90
2023-01-29T09:15:31.466Z,98.00
2023-01-29T09:18:02.874Z,97.80
2023-01-29T09:20:31.320Z,98.10
2023-01-29T09:22:59.565Z,97.50
2023-01-29T09:25:27.529Z,97.00
2023-01-29T09:27:55.593Z,96.20
2023-01-29T09:30:23.506Z,95.40
2023-01-29T09:32:54.118Z,94.10
2023-01-29T09:35:23.903Z,93.80
2023-01-29T09:37:52.876Z,93.60
2023-01-29T09:40:27.241Z,93.40
2023-01-29T09:43:13.580Z,92.50
2023-01-29T09:46:01.676Z,91.80
2023-01-29T09:48:32.666Z,91.20
2023-01-29T09:51:06.847Z,90.80
2023-01-29T09:53:53.625Z,90.70
2023-01-29T09:56:24.087Z,91.30
2023-01-29T09:58:52.040Z,91.50
2023-01-29T10:01:43.191Z,91.00
2023-01-29T10:04:47.860Z,90.70
2023-01-29T10:08:03.115Z,91.50
2023-01-29T10:10:39.557Z,91.70
2023-01-29T10:13:28.806Z,93.20
2023-01-29T10:16:00.388Z,92.40
2023-01-29T10:18:57.994Z,92.00
2023-01-29T10:21:37.407Z,91.90
2023-01-29T10:24:24.433Z,93.00
2023-01-29T10:26:53.354Z,91.40
2023-01-29T10:29:22.578Z,90.40
2023-01-29T10:31:56.956Z,87.60
2023-01-29T10:34:58.037Z,84.90
2023-01-29T10:37:39.572Z,82.30
2023-01-29T10:40:28.489Z,82.00
2023-01-29T10:43:01.197Z,78.50
2023-01-29T10:46:00.986Z,78.50
2023-01-29T10:48:46.680Z,76.70
2023-01-29T10:51:45.381Z,72.70
2023-01-29T10:54:36.326Z,71.30
2023-01-29T10:57:18.373Z,66.50
2023-01-29T11:00:15.903Z,62.90
2023-01-29T11:02:46.323Z,59.70
2023-01-29T11:05:42.872Z,59.10
2023-01-29T11:08:18.480Z,58.70
2023-01-29T11:11:18.155Z,60.20
2023-01-29T11:14:16.180Z,63.80
2023-01-29T11:16:47.365Z,66.50
2023-01-29T11:19:16.867Z,67.50
2023-01-29T11:22:13.475Z,69.50
2023-01-29T11:24:41.409Z,69.40
2023-01-29T11:27:29.903Z,68.20
2023-01-29T11:29:58.315Z,68.50
2023-01-29T11:32:30.004Z,68.10
2023-01-29T11:35:21.535Z,67.20
2023-01-29T11:37:49.842Z,68.60
2023-01-29T11:40:20.900Z,67.00
2023-01-29T11:42:50.044Z,66.40
2023-01-29T11:45:23.628Z,61.80
2023-01-29T11:47:55.266Z,60.80
2023-01-29T11:50:29.714Z,62.60
2023-01-29T11:53:00.635Z,64.00
2023-01-29T11:55:49.533Z,65.90
2023-01-29T11:58:32.118Z,65.90
2023-01-29T12:01:01.234Z,67.10
2023-01-29T12:03:37.992Z,68.10
2023-01-29T12:06:19.826Z,69.30
2023-01-29T12:08:59.248Z,70.90
2023-01-29T12:11:34.805Z,72.20
2023-01-29T12:14:24.994Z,73.10
2023-01-29T12:17:12.743Z,71.80
2023-01-29T12:19:51.519Z,71.00
2023-01-29T12:22:44.232Z,67.30
2023-01-29T12:25:36.159Z,62.80
2023-01-29T12:28:35.163Z,63.80
2023-01-29T12:31:18.550Z,62.30
2023-01-29T12:34:13.919Z,59.20
2023-01-29T12:37:03.544Z,56.90
2023-01-29T12:39:32.827Z,52.80
2023-01-29T12:42:15.056Z,50.90
2023-01-29T12:44:50.020Z,48.90
2023-01-29T12:47:29.808Z,46.40
2023-01-29T12:50:02.840Z,45.00
2023-01-29T12:52:42.285Z,44.30
2023-01-29T12:55:37.074Z,45.60
2023-01-29T12:58:13.676Z,48.80
2023-01-29T13:00:45.888Z,51.10
2023-01-29T13:03:27.742Z,53.60
2023-01-29T13:06:04.857Z,54.10
2023-01-29T13:09:00.720Z,54.00
2023-01-29T13:11:38.323Z,51.00
2023-01-29T13:14:23.515Z,51.00
2023-01-29T13:17:03.828Z,53.00
2023-01-29T13:19:44.015Z,54.70
2023-01-29T13:22:28.228Z,56.40
2023-01-29T13:25:04.689Z,58.00
2023-01-29T13:27:35.998Z,60.20
2023-01-29T13:30:05.003Z,60.70
2023-01-29T13:32:36.624Z,62.70
2023-01-29T13:35:14.166Z,62.90
2023-01-29T13:37:55.779Z,62.60
2023-01-29T13:40:28.182Z,62.40
2023-01-29T13:42:59.933Z,62.80
2023-01-29T13:45:44.314Z,64.60
2023-01-29T13:48:27.962Z,65.70
2023-01-29T13:51:00.518Z,67.60
2023-01-29T13:53:40.841Z,69.00
2023-01-29T13:56:33.560Z,70.20
2023-01-29T13:59:03.876Z,70.90
2023-01-29T14:01:49.745Z,71.90
2023-01-29T14:04:22.917Z,73.20
2023-01-29T14:06:53.509Z,73.90
2023-01-29T14:09:39.543Z,74.70
2023-01-29T14:12:22.338Z,76.40
2023-01-29T14:14:57.065Z,76.70
2023-01-29T14:17:27.562Z,76.90
2023-01-29T14:20:18.919Z,77.30
2023-01-29T14:22:58.046Z,78.30
2023-01-29T14:25:38.894Z,78.00
2023-01-29T14:28:20.525Z,78.10
2023-01-29T14:30:50.082Z,79.00
2023-01-29T14:33:34.274Z,79.80
2023-01-29T14:36:09.940Z,81.10
2023-01-29T14:38:39.419Z,82.40
2023-01-29T14:41:22.024Z,83.60
2023-01-29T14:43:49.921Z,84.70
2023-01-29T14:46:35.822Z,85.10
2023-01-29T14:49:04.211Z,85.80
2023-01-29T14:51:38.674Z,86.40
2023-01-29T14:54:34.083Z,86.90
2023-01-29T14:57:07.028Z,86.80
2023-01-29T15:00:00.340Z,87.40
2023-01-29T15:02:42.526Z,87.40
2023-01-29T15:05:20.567Z,87.30
2023-01-29T15:07:55.104Z,87.50
2023-01-29T15:10:33.902Z,88.00
2023-01-29T15:13:05.241Z,87.70
2023-01-29T15:15:54.938Z,87.60
2023-01-29T15:18:51.220Z,88.10
2023-01-29T15:21:20.203Z,88.60
2023-01-29T15:23:49.355Z,89.10
2023-01-29T15:26:22.072Z,89.30
2023-01-29T15:29:04.189Z,90.20
2023-01-29T15:31:33.729Z,90.50
2023-01-29T15:34:07.792Z,90.80
2023-01-29T15:36:37.742Z,90.90
2023-01-29T15:39:24.504Z,91.10
2023-01-29T15:42:11.776Z,91.40
2023-01-29T15:44:46.602Z,91.80
2023-01-29T15:47:15.948Z,92.10
2023-01-29T15:49:45.911Z,92.40
2023-01-29T15:52:27.446Z,92.70
2023-01-29T15:54:58.170Z,93.10
2023-01-29T15:57:34.646Z,93.10
2023-01-29T16:00:03.080Z,93.20
2023-01-29T16:02:42.923Z,93.30
2023-01-29T16:05:31.105Z,93.60
2023-01-29T16:08:01.262Z,94.00
2023-01-29T16:10:32.430Z,94.10
2023-01-29T16:13:01.251Z,94.70
2023-01-29T16:15:35.654Z,94.70
2023-01-29T16:18:19.527Z,94.90
2023-01-29T16:20:52.866Z,95.30
2023-01-29T16:23:28.257Z,95.80
2023-01-29T16:26:07.663Z,95.90
2023-01-29T16:28:41.852Z,96.00
2023-01-29T16:31:11.550Z,96.30
2023-01-29T16:33:43.035Z,96.60
2023-01-29T16:36:19.019Z,97.00
2023-01-29T16:39:14.627Z,97.60
2023-01-29T16:41:42.476Z,98.00
2023-01-29T16:44:16.574Z,98.20
2023-01-29T16:46:49.273Z,97.90
2023-01-29T16:49:29.349Z,98.20
2023-01-29T16:52:15.489Z,98.70
2023-01-29T16:54:44.151Z,99.00
2023-01-29T16:57:16.796Z,99.60
2023-01-29T16:59:46.247Z,99.50
2023-01-29T17:02:25.254Z,99.30
2023-01-29T17:04:57.802Z,99.00
2023-01-29T17:07:26.159Z,99.50
2023-01-29T17:10:00.383Z,99.60
2023-01-29T17:12:29.811Z,99.60
2023-01-29T17:15:00.706Z,99.30
2023-01-29T17:17:34.139Z,98.90
2023-01-29T17:20:16.606Z,98.90
2023-01-29T17:22:45.498Z,99.00
2023-01-29T17:25:17.461Z,99.20
2023-01-29T17:27:51.866Z,99.60
2023-01-29T17:30:22.776Z,99.90
2023-01-29T17:32:50.704Z,99.90
2023-01-29T17:35:18.875Z,99.90
2023-01-29T17:37:46.977Z,99.90
2023-01-29T17:40:28.656Z,99.90
2023-01-29T17:42:56.573Z,99.90
2023-01-29T17:45:24.467Z,99.90
2023-01-29T17:47:52.316Z,99.90
2023-01-29T17:50:24.444Z,99.90
2023-01-29T17:52:53.478Z,99.90
2023-01-29T17:55:21.379Z,99.90
2023-01-29T17:57:52.492Z,99.90
2023-01-29T18:00:25.300Z,99.90
2023-01-29T18:02:53.253Z,99.90
2023-01-29T18:05:21.108Z,99.90
2023-01-29T18:07:52.144Z,99.90
2023-01-29T18:10:21.983Z,99.90
2023-01-29T18:12:49.729Z,99.90
2023-01-29T18:15:18.594Z,99.90
2023-01-29T18:17:47.287Z,99.90
2023-01-29T18:20:25.788Z,99.90
2023-01-29T18:22:54.520Z,99.90
2023-01-29T18:25:24.147Z,99.90
2023-01-29T18:27:52.931Z,99.90
2023-01-29T18:30:20.804Z,99.90
2023-01-29T18:32:50.633Z,99.90
2023-01-29T18:35:18.645Z,99.90
2023-01-29T18:37:47.133Z,99.90
2023-01-29T18:40:17.465Z,99.90
2023-01-29T18:42:46.583Z,99.90
2023-01-29T18:45:15.918Z,99.90
2023-01-29T18:47:44.403Z,99.90
2023-01-29T18:50:12.727Z,99.90
2023-01-29T18:52:41.302Z,99.90
2023-01-29T18:55:10.104Z,99.90
2023-01-29T18:58:25.164Z,99.90
2023-01-29T19:00:27.471Z,99.90
2023-01-29T19:02:55.111Z,99.90
2023-01-29T19:05:24.855Z,99.90
2023-01-29T19:07:52.840Z,99.90
2023-01-29T19:10:20.698Z,99.90
2023-01-29T19:12:48.443Z,99.90
2023-01-29T19:15:21.161Z,99.90
2023-01-29T19:17:50.799Z,99.90
2023-01-29T19:20:21.633Z,99.90
2023-01-29T19:22:49.544Z,99.90
2023-01-29T19:25:18.235Z,99.90
2023-01-29T19:27:46.639Z,99.90
2023-01-29T19:30:15.027Z,99.90
2023-01-29T19:32:42.901Z,99.90
2023-01-29T19:35:10.643Z,99.90
2023-01-29T19:37:38.666Z,99.90
2023-01-29T19:40:08.398Z,99.90
2023-01-29T19:42:37.898Z,99.90
2023-01-29T19:45:06.200Z,99.90
2023-01-29T19:47:39.396Z,99.90
2023-01-29T19:50:08.843Z,99.90
2023-01-29T19:52:52.326Z,99.90
2023-01-29T19:55:21.637Z,99.90
2023-01-29T19:57:52.059Z,99.90
2023-01-29T20:00:20.905Z,99.90
2023-01-29T20:02:48.956Z,99.90
2023-01-29T20:05:18.987Z,99.90
2023-01-29T20:07:47.249Z,99.90
2023-01-29T20:10:17.890Z,99.90
2023-01-29T20:12:47.867Z,99.90
2023-01-29T20:15:16.385Z,99.90
2023-01-29T20:17:46.676Z,99.90
2023-01-29T20:20:15.207Z,99.90
2023-01-29T20:22:43.132Z,99.90
2023-01-29T20:25:14.110Z,99.90
2023-01-29T20:27:42.639Z,99.90
2023-01-29T20:30:11.832Z,99.90
2023-01-29T20:32:40.114Z,99.90
2023-01-29T20:35:08.752Z,99.90
2023-01-29T20:37:37.148Z,99.90
2023-01-29T20:40:05.457Z,99.90
2023-01-29T20:42:33.227Z,99.90
2023-01-29T20:45:01.563Z,99.90
2023-01-29T20:47:29.589Z,99.90
2023-01-29T20:49:57.729Z,99.90
2023-01-29T20:52:25.731Z,99.90
2023-01-29T20:54:54.017Z,99.90
2023-01-29T20:57:22.209Z,99.90
2023-01-29T20:59:50.502Z,99.90
2023-01-29T21:02:18.635Z,99.90
2023-01-29T21:04:46.606Z,99.90
2023-01-29T21:07:14.694Z,99.90
2023-01-29T21:09:44.030Z,99.90
2023-01-29T21:12:13.056Z,99.90
2023-01-29T21:14:41.247Z,99.90
2023-01-29T21:17:09.669Z,99.90
2023-01-29T21:19:37.586Z,99.90
2023-01-29T21:22:08.450Z,99.90
2023-01-29T21:24:37.123Z,99.90
2023-01-29T21:27:05.184Z,99.90
2023-01-29T21:29:33.459Z,99.90
2023-01-29T21:32:01.417Z,99.90
2023-01-29T21:34:29.698Z,99.90
2023-01-29T21:36:57.480Z,99.90
2023-01-29T21:39:27.291Z,99.90
2023-01-29T21:42:13.657Z,99.90
2023-01-29T21:44:41.705Z,99.90
2023-01-29T21:47:19.296Z,99.90
2023-01-29T21:49:47.799Z,99.90
2023-01-29T21:52:15.876Z,99.90
2023-01-29T21:54:47.998Z,99.90
2023-01-29T21:57:17.200Z,99.90
2023-01-29T21:59:47.051Z,99.90
2023-01-29T22:02:22.584Z,99.90
2023-01-29T22:04:52.563Z,99.90
2023-01-29T22:07:20.528Z,99.90
2023-01-29T22:09:48.341Z,99.90
2023-01-29T22:12:17.813Z,99.90
2023-01-29T22:14:47.818Z,99.90
2023-01-29T22:17:16.890Z,99.90
2023-01-29T22:19:44.891Z,99.90
2023-01-29T22:22:17.008Z,99.90
2023-01-29T22:24:47.071Z,99.90
2023-01-29T22:27:16.178Z,99.90
2023-01-29T22:29:44.330Z,99.90
2023-01-29T22:32:13.626Z,99.90
2023-01-29T22:34:41.953Z,99.90
2023-01-29T22:37:10.210Z,99.90
2023-01-29T22:39:38.196Z,99.90
2023-01-29T22:42:06.371Z,99.90
2023-01-29T22:44:34.624Z,99.90
2023-01-29T22:47:02.579Z,99.90
2023-01-29T22:49:31.143Z,99.90
2023-01-29T22:52:11.231Z,99.90
2023-01-29T22:54:43.877Z,99.90
2023-01-29T22:57:13.715Z,99.90
2023-01-29T22:59:41.914Z,99.90
2023-01-29T23:02:09.977Z,99.90
2023-01-29T23:04:38.126Z,99.90
2023-01-29T23:07:05.959Z,99.90
2023-01-29T23:09:33.948Z,99.90
2023-01-29T23:12:03.037Z,99.90
2023-01-29T23:14:30.839Z,99.90
2023-01-29T23:16:58.873Z,99.90
2023-01-29T23:19:27.441Z,99.90
2023-01-29T23:21:55.403Z,99.90
2023-01-29T23:24:23.325Z,99.90
2023-01-29T23:27:09.609Z,99.90
2023-01-29T23:29:37.775Z,99.90
2023-01-29T23:32:07.391Z,99.90
2023-01-29T23:34:35.603Z,99.90
2023-01-29T23:37:03.870Z,99.90
2023-01-29T23:39:32.102Z,99.90
2023-01-29T23:42:00.915Z,99.90
2023-01-29T23:44:28.886Z,99.90
2023-01-29T23:46:56.889Z,99.90
2023-01-29T23:49:25.179Z,99.90
2023-01-29T23:51:53.168Z,99.90
2023-01-29T23:54:21.064Z,99.90
2023-01-29T23:56:49.185Z,99.90
2023-01-29T23:59:17.673Z,99.90
